KSGH/SGH METAR and TAF weather

Enter ICAO airport designator
Station Type Date Time Source
KSGH METAR 2020/01/29 02:56 UTC NOAA

KSGH 290256Z AUTO 00000KT 7SM OVC023 M01/M01 A3009 RMK AO2 SLP202 6//// T10061011 53002 PNO $


Station Type Date Time Source
KSGH Decoded METAR 2020/01/29 02:56 UTC NOAA

Springfield, Springfield-Beckley Municipal Airport, OH, United States (KSGH) 39-50-25N 083-50-24W
Jan 28, 2020 - 09:56 PM EST / 2020.01.29 0256 UTC
Wind: Calm:0
Visibility: 7 mile(s):0
Sky conditions: overcast
Temperature: 30.9 F (-0.6 C)
Dew Point: 30.0 F (-1.1 C)
Relative Humidity: 96%
Pressure (altimeter): 30.09 in. Hg (1018 hPa)
Pressure tendency: 0.01 inches (0.2 hPa) higher than three hours ago
ob: KSGH 290256Z AUTO 00000KT 7SM OVC023 M01/M01 A3009 RMK AO2 SLP202 6//// T10061011 53002 PNO
cycle: 3

Station Type Date Time Source
KSGH TAF UTC NOAA

Error!

Example: see airport list